PAED METAR and TAF weather

Enter ICAO airport designator
Station Type Date Time Source
PAED METAR 2020/09/18 21:56 UTC NOAA

PAED 182156Z 19017G21KT 10SM FEW045 BKN140 14/06 A2964 RMK AO2A PK WND 18030/07 SLP033 T01360055 $


Station Type Date Time Source
PAED Decoded METAR 2020/09/18 21:56 UTC NOAA

Anchorage, Elmendorf Air Force Base, AK, United States (PAED) 61-15-11N 149-47-38W 59M
Sep 18, 2020 - 05:56 PM EDT / 2020.09.18 2156 UTC
Wind: from the S (190 degrees) at 20 MPH (17 KT) gusting to 24 MPH (21 KT):0
Visibility: 10 mile(s):0
Sky conditions: mostly cloudy
Temperature: 56.5 F (13.6 C)
Dew Point: 41.9 F (5.5 C)
Relative Humidity: 57%
Pressure (altimeter): 29.64 in. Hg (1003 hPa)
ob: PAED 182156Z 19017G21KT 10SM FEW045 BKN140 14/06 A2964 RMK AO2A PK WND 18030/07 SLP033 T01360055
cycle: 22

Station Type Date Time Source
PAED TAF 2020/09/18 18:07 UTC NOAA

TAF PAED 181800Z 1818/1924 19012KT 9999 BKN045 BKN070 BKN150 620504 520006 QNH2961INS
BECMG 1903/1904 18009KT 9999 SCT050 BKN070 QNH2966INS
BECMG 1914/1915 15006KT 9999 BKN060 BKN150 QNH2972INS TX15/1901Z TN09/1915Z

Example: see airport list